createdAt,value
2022-09-10T00:01:28.551Z,100373.88
2022-09-10T00:03:56.723Z,100377.19
2022-09-10T00:06:26.304Z,100379.53
2022-09-10T00:08:56.328Z,100373.28
2022-09-10T00:11:25.369Z,100374.91
2022-09-10T00:13:55.172Z,100372.44
2022-09-10T00:16:23.180Z,100379.53
2022-09-10T00:18:51.722Z,100377.06
2022-09-10T00:21:21.782Z,100370.28
2022-09-10T00:23:50.560Z,100368.66
2022-09-10T00:26:21.871Z,100367.88
2022-09-10T00:28:50.311Z,100362.59
2022-09-10T00:31:21.872Z,100359.78
2022-09-10T00:33:50.200Z,100364.75
2022-09-10T00:36:21.716Z,100368.84
2022-09-10T00:38:50.530Z,100366.81
2022-09-10T00:41:19.537Z,100371.19
2022-09-10T00:43:55.774Z,100363.91
2022-09-10T00:46:34.608Z,100368.75
2022-09-10T00:49:07.015Z,100360.53
2022-09-10T00:51:36.615Z,100350.28
2022-09-10T00:54:06.566Z,100357.38
2022-09-10T00:56:35.778Z,100350.94
2022-09-10T00:59:05.538Z,100354.03
2022-09-10T01:01:36.390Z,100350.38
2022-09-10T01:04:06.048Z,100341.78
2022-09-10T01:06:34.037Z,100339.84
2022-09-10T01:09:03.081Z,100340.84
2022-09-10T01:11:43.617Z,100342.31
2022-09-10T01:14:28.038Z,100333.91
2022-09-10T01:17:07.922Z,100342.63
2022-09-10T01:19:59.966Z,100349.31
2022-09-10T01:22:38.678Z,100351.31
2022-09-10T01:25:16.625Z,100348.03
2022-09-10T01:27:48.637Z,100336.34
2022-09-10T01:30:19.370Z,100343.06
2022-09-10T01:32:57.350Z,100341.41
2022-09-10T01:35:30.542Z,100338.53
2022-09-10T01:38:04.754Z,100337.41
2022-09-10T01:40:33.490Z,100333.56
2022-09-10T01:43:04.625Z,100339.53
2022-09-10T01:45:37.836Z,100339.41
2022-09-10T01:48:25.142Z,100343.75
2022-09-10T01:51:04.516Z,100338.78
2022-09-10T01:53:52.965Z,100341.03
2022-09-10T01:56:35.714Z,100337.50
2022-09-10T01:59:11.622Z,100335.53
2022-09-10T02:01:46.094Z,100331.78
2022-09-10T02:04:16.301Z,100328.44
2022-09-10T02:06:47.951Z,100325.47
2022-09-10T02:09:17.244Z,100330.66
2022-09-10T02:11:47.390Z,100334.63
2022-09-10T02:14:17.482Z,100316.84
2022-09-10T02:16:48.894Z,100329.72
2022-09-10T02:19:18.104Z,100329.00
2022-09-10T02:21:46.674Z,100325.41
2022-09-10T02:24:15.266Z,100332.38
2022-09-10T02:26:45.083Z,100322.44
2022-09-10T02:29:15.463Z,100322.50
2022-09-10T02:31:45.189Z,100322.50
2022-09-10T02:34:13.131Z,100324.63
2022-09-10T02:36:41.034Z,100320.53
2022-09-10T02:39:09.020Z,100327.78
2022-09-10T02:41:38.198Z,100326.94
2022-09-10T02:44:06.161Z,100325.09
2022-09-10T02:46:34.285Z,100318.50
2022-09-10T02:49:03.635Z,100316.47
2022-09-10T02:51:31.734Z,100315.50
2022-09-10T02:53:59.833Z,100310.88
2022-09-10T02:56:27.726Z,100313.03
2022-09-10T02:58:55.621Z,100314.47
2022-09-10T03:01:24.590Z,100313.66
2022-09-10T03:03:55.074Z,100316.28
2022-09-10T03:06:25.891Z,100298.50
2022-09-10T03:08:55.365Z,100314.47
2022-09-10T03:11:24.245Z,100319.75
2022-09-10T03:13:52.329Z,100319.28
2022-09-10T03:16:20.860Z,100336.72
2022-09-10T03:18:49.054Z,100336.84
2022-09-10T03:21:20.268Z,100333.22
2022-09-10T03:23:51.383Z,100325.66
2022-09-10T03:26:21.109Z,100324.50
2022-09-10T03:28:50.253Z,100319.06
2022-09-10T03:31:18.344Z,100329.63
2022-09-10T03:33:46.513Z,100327.16
2022-09-10T03:36:14.607Z,100333.91
2022-09-10T03:38:42.593Z,100336.25
2022-09-10T03:41:12.340Z,100324.06
2022-09-10T03:43:40.329Z,100328.88
2022-09-10T03:46:08.411Z,100328.41
2022-09-10T03:48:36.319Z,100333.81
2022-09-10T03:51:04.605Z,100335.00
2022-09-10T03:53:32.490Z,100325.41
2022-09-10T03:56:00.486Z,100320.63
2022-09-10T03:58:29.882Z,100330.69
2022-09-10T04:00:57.792Z,100314.66
2022-09-10T04:03:26.091Z,100324.59
2022-09-10T04:05:54.015Z,100320.97
2022-09-10T04:08:22.195Z,100317.66
2022-09-10T04:10:50.100Z,100327.91
2022-09-10T04:13:18.018Z,100325.59
2022-09-10T04:15:47.319Z,100330.31
2022-09-10T04:18:15.861Z,100332.00
2022-09-10T04:20:47.771Z,100313.91
2022-09-10T04:23:17.178Z,100327.91
2022-09-10T04:25:45.085Z,100331.53
2022-09-10T04:28:13.175Z,100333.06
2022-09-10T04:30:41.407Z,100321.66
2022-09-10T04:33:11.724Z,100332.72
2022-09-10T04:35:40.671Z,100325.81
2022-09-10T04:38:09.207Z,100324.69
2022-09-10T04:40:38.433Z,100325.53
2022-09-10T04:43:06.345Z,100326.69
2022-09-10T04:45:34.772Z,100313.91
2022-09-10T04:48:06.827Z,100318.69
2022-09-10T04:50:36.724Z,100318.22
2022-09-10T04:53:04.653Z,100319.53
2022-09-10T04:55:33.386Z,100312.25
2022-09-10T04:58:01.289Z,100324.31
2022-09-10T05:00:29.229Z,100311.28
2022-09-10T05:02:57.137Z,100322.16
2022-09-10T05:05:25.167Z,100323.63
2022-09-10T05:07:54.501Z,100321.31
2022-09-10T05:10:23.556Z,100324.97
2022-09-10T05:12:51.502Z,100320.97
2022-09-10T05:15:19.413Z,100318.69
2022-09-10T05:17:48.240Z,100320.00
2022-09-10T05:20:16.382Z,100321.13
2022-09-10T05:22:44.319Z,100324.91
2022-09-10T05:25:13.601Z,100326.84
2022-09-10T05:27:41.833Z,100307.28
2022-09-10T05:30:10.820Z,100323.19
2022-09-10T05:32:40.187Z,100309.31
2022-09-10T05:35:09.469Z,100305.88
2022-09-10T05:37:37.578Z,100315.63
2022-09-10T05:40:07.014Z,100318.44
2022-09-10T05:42:36.552Z,100303.31
2022-09-10T05:45:04.683Z,100314.56
2022-09-10T05:47:32.649Z,100321.72
2022-09-10T05:50:00.566Z,100329.00
2022-09-10T05:52:28.497Z,100322.88
2022-09-10T05:54:57.068Z,100320.06
2022-09-10T05:57:25.098Z,100327.16
2022-09-10T05:59:54.386Z,100322.47
2022-09-10T06:02:24.266Z,100315.56
2022-09-10T06:04:52.442Z,100316.03
2022-09-10T06:07:20.356Z,100310.72
2022-09-10T06:09:48.366Z,100306.09
2022-09-10T06:12:17.248Z,100304.91
2022-09-10T06:14:45.156Z,100308.59
2022-09-10T06:17:14.594Z,100305.22
2022-09-10T06:19:44.650Z,100313.66
2022-09-10T06:22:12.829Z,100310.03
2022-09-10T06:24:40.747Z,100319.59
2022-09-10T06:27:09.735Z,100326.81
2022-09-10T06:29:37.841Z,100322.78
2022-09-10T06:32:06.385Z,100312.09
2022-09-10T06:34:35.886Z,100319.72
2022-09-10T06:37:04.263Z,100321.13
2022-09-10T06:39:32.321Z,100321.16
2022-09-10T06:42:00.604Z,100316.53
2022-09-10T06:44:29.591Z,100322.50
2022-09-10T06:47:32.477Z,100322.38
2022-09-10T06:49:47.453Z,100313.72
2022-09-10T06:52:15.435Z,100327.31
2022-09-10T06:54:43.358Z,100326.56
2022-09-10T06:57:11.479Z,100333.97
2022-09-10T06:59:39.374Z,100330.91
2022-09-10T07:02:07.364Z,100338.06
2022-09-10T07:04:35.325Z,100337.00
2022-09-10T07:07:04.636Z,100331.00
2022-09-10T07:09:32.602Z,100323.97
2022-09-10T07:12:00.513Z,100329.63
2022-09-10T07:14:28.510Z,100323.19
2022-09-10T07:16:57.595Z,100327.09
2022-09-10T07:19:25.711Z,100325.44
2022-09-10T07:21:53.628Z,100320.72
2022-09-10T07:24:22.946Z,100323.59
2022-09-10T07:26:50.863Z,100320.47
2022-09-10T07:29:19.659Z,100323.16
2022-09-10T07:31:48.320Z,100329.63
2022-09-10T07:34:16.510Z,100322.47
2022-09-10T07:36:44.474Z,100324.81
2022-09-10T07:39:12.406Z,100323.47
2022-09-10T07:41:41.737Z,100328.69
2022-09-10T07:44:09.658Z,100322.31
2022-09-10T07:46:38.062Z,100321.22
2022-09-10T07:49:06.110Z,100320.59
2022-09-10T07:51:35.661Z,100328.56
2022-09-10T07:54:04.414Z,100324.84
2022-09-10T07:56:34.683Z,100325.06
2022-09-10T07:59:03.993Z,100322.53
2022-09-10T08:01:32.252Z,100326.47
2022-09-10T08:04:00.492Z,100326.47
2022-09-10T08:06:28.455Z,100321.97
2022-09-10T08:08:56.382Z,100313.94
2022-09-10T08:11:24.435Z,100323.56
2022-09-10T08:13:53.956Z,100326.13
2022-09-10T08:16:25.286Z,100322.53
2022-09-10T08:18:53.264Z,100321.13
2022-09-10T08:21:21.282Z,100326.34
2022-09-10T08:23:51.056Z,100322.53
2022-09-10T08:26:20.105Z,100333.09
2022-09-10T08:28:48.523Z,100313.56
2022-09-10T08:31:16.787Z,100333.75
2022-09-10T08:33:49.395Z,100321.94
2022-09-10T08:36:18.446Z,100329.41
2022-09-10T08:38:47.381Z,100328.28
2022-09-10T08:41:28.253Z,100323.00
2022-09-10T08:43:59.435Z,100317.63
2022-09-10T08:46:30.754Z,100311.44
2022-09-10T08:49:08.346Z,100304.81
2022-09-10T08:51:43.471Z,100310.19
2022-09-10T08:54:16.306Z,100302.28
2022-09-10T08:56:44.843Z,100313.66
2022-09-10T08:59:22.434Z,100288.81
2022-09-10T09:01:55.909Z,100305.03
2022-09-10T09:04:34.114Z,100293.84
2022-09-10T09:07:10.462Z,100291.69
2022-09-10T09:09:38.417Z,100289.84
2022-09-10T09:12:16.227Z,100281.66
2022-09-10T09:14:54.618Z,100275.38
2022-09-10T09:17:39.214Z,100282.75
2022-09-10T09:20:18.281Z,100280.72
2022-09-10T09:22:53.287Z,100272.13
2022-09-10T09:25:28.905Z,100258.13
2022-09-10T09:27:58.739Z,100251.00
2022-09-10T09:30:32.102Z,100265.44
2022-09-10T09:33:05.668Z,100260.31
2022-09-10T09:35:44.183Z,100239.19
2022-09-10T09:38:22.335Z,100249.53
2022-09-10T09:40:52.985Z,100237.09
2022-09-10T09:43:29.817Z,100240.63
2022-09-10T09:45:58.185Z,100238.06
2022-09-10T09:48:26.960Z,100232.91
2022-09-10T09:51:00.414Z,100226.25
2022-09-10T09:53:31.049Z,100232.19
2022-09-10T09:56:01.325Z,100231.50
2022-09-10T09:58:32.217Z,100231.38
2022-09-10T10:01:16.802Z,100229.13
2022-09-10T10:03:58.821Z,100230.91
2022-09-10T10:06:31.225Z,100229.41
2022-09-10T10:09:01.781Z,100226.13
2022-09-10T10:11:49.017Z,100233.97
2022-09-10T10:14:39.440Z,100223.25
2022-09-10T10:17:38.322Z,100231.38
2022-09-10T10:20:09.740Z,100227.34
2022-09-10T10:22:40.670Z,100234.88
2022-09-10T10:25:40.445Z,100234.78
2022-09-10T10:28:27.564Z,100229.56
2022-09-10T10:30:59.192Z,100229.88
2022-09-10T10:33:29.824Z,100225.56
2022-09-10T10:36:07.637Z,100218.31
2022-09-10T10:38:40.372Z,100215.53
2022-09-10T10:41:29.749Z,100213.56
2022-09-10T10:44:10.211Z,100214.16
2022-09-10T10:46:46.004Z,100210.41
2022-09-10T10:49:27.012Z,100209.47
2022-09-10T10:52:05.554Z,100207.13
2022-09-10T10:54:57.657Z,100201.19
2022-09-10T10:57:40.513Z,100205.84
2022-09-10T11:00:12.320Z,100217.66
2022-09-10T11:02:46.749Z,100207.84
2022-09-10T11:05:25.810Z,100209.81
2022-09-10T11:07:56.500Z,100210.19
2022-09-10T11:10:32.943Z,100212.75
2022-09-10T11:13:09.411Z,100207.50
2022-09-10T11:15:43.543Z,100205.41
2022-09-10T11:18:19.464Z,100199.78
2022-09-10T11:20:54.462Z,100202.00
2022-09-10T11:23:30.823Z,100195.13
2022-09-10T11:26:07.166Z,100187.31
2022-09-10T11:28:39.835Z,100188.44
2022-09-10T11:31:15.406Z,100178.63
2022-09-10T11:33:53.416Z,100175.84
2022-09-10T11:36:28.230Z,100169.03
2022-09-10T11:39:09.354Z,100136.19
2022-09-10T11:41:43.281Z,100164.06
2022-09-10T11:44:26.639Z,100166.38
2022-09-10T11:47:04.225Z,100156.75
2022-09-10T11:49:43.260Z,100154.88
2022-09-10T11:52:12.595Z,100153.03
2022-09-10T11:54:42.308Z,100151.41
2022-09-10T11:57:23.331Z,100148.47
2022-09-10T12:00:15.827Z,100139.91
2022-09-10T12:03:13.810Z,100137.72
2022-09-10T12:05:54.405Z,100139.91
2022-09-10T12:08:34.018Z,100136.00
2022-09-10T12:11:14.088Z,100138.69
2022-09-10T12:13:45.776Z,100130.81
2022-09-10T12:16:22.393Z,100131.44
2022-09-10T12:18:53.061Z,100126.72
2022-09-10T12:21:32.504Z,100131.59
2022-09-10T12:24:03.290Z,100122.31
2022-09-10T12:26:41.551Z,100125.19
2022-09-10T12:29:27.799Z,100114.03
2022-09-10T12:32:37.106Z,100110.41
2022-09-10T12:35:46.265Z,100110.06
2022-09-10T12:38:49.794Z,100100.13
2022-09-10T12:41:36.185Z,100097.63
2022-09-10T12:44:05.868Z,100092.69
2022-09-10T12:46:35.512Z,100089.00
2022-09-10T12:49:11.938Z,100096.94
2022-09-10T12:51:56.789Z,100087.41
2022-09-10T12:54:44.683Z,100093.81
2022-09-10T12:57:31.635Z,100083.34
2022-09-10T13:00:18.702Z,100078.91
2022-09-10T13:02:58.843Z,100075.06
2022-09-10T13:05:33.171Z,100078.34
2022-09-10T13:08:20.624Z,100067.94
2022-09-10T13:11:06.416Z,100071.69
2022-09-10T13:13:38.825Z,100071.69
2022-09-10T13:16:15.673Z,100064.09
2022-09-10T13:18:46.732Z,100058.41
2022-09-10T13:21:52.416Z,100065.00
2022-09-10T13:24:59.660Z,100050.75
2022-09-10T13:27:38.015Z,100054.97
2022-09-10T13:30:17.446Z,100048.53
2022-09-10T13:32:48.853Z,100041.66
2022-09-10T13:35:42.313Z,100040.69
2022-09-10T13:38:19.590Z,100045.91
2022-09-10T13:41:02.781Z,100040.66
2022-09-10T13:43:47.922Z,100041.25
2022-09-10T13:46:24.668Z,100030.94
2022-09-10T13:48:58.551Z,100032.94
2022-09-10T13:51:34.889Z,100036.44
2022-09-10T13:54:09.313Z,100018.25
2022-09-10T13:56:38.925Z,100016.28
2022-09-10T13:59:08.217Z,100024.47
2022-09-10T14:01:50.563Z,100017.78
2022-09-10T14:04:31.879Z,100024.47
2022-09-10T14:07:05.562Z,100021.72
2022-09-10T14:09:35.289Z,100029.81
2022-09-10T14:12:05.874Z,100018.69
2022-09-10T14:14:39.895Z,99989.53
2022-09-10T14:17:12.622Z,100011.31
2022-09-10T14:19:49.385Z,100012.00
2022-09-10T14:22:22.350Z,100011.53
2022-09-10T14:24:53.794Z,100015.81
2022-09-10T14:27:25.924Z,100018.84
2022-09-10T14:29:57.444Z,100015.91
2022-09-10T14:32:33.550Z,100014.72
2022-09-10T14:35:37.769Z,100013.06
2022-09-10T14:38:23.164Z,100008.97
2022-09-10T14:40:56.065Z,100008.22
2022-09-10T14:43:30.549Z,100007.19
2022-09-10T14:45:58.925Z,100000.84
2022-09-10T14:48:29.830Z,100014.47
2022-09-10T14:51:10.660Z,100001.09
2022-09-10T14:53:42.143Z,99999.75
2022-09-10T14:56:23.061Z,99996.19
2022-09-10T14:58:59.337Z,100000.72
2022-09-10T15:01:27.630Z,99998.06
2022-09-10T15:03:55.640Z,100005.81
2022-09-10T15:06:26.340Z,99998.66
2022-09-10T15:08:57.184Z,99996.63
2022-09-10T15:11:27.421Z,99997.13
2022-09-10T15:13:58.851Z,100002.84
2022-09-10T15:16:26.862Z,99990.13
2022-09-10T15:18:54.784Z,99996.81
2022-09-10T15:21:23.146Z,100010.22
2022-09-10T15:23:51.097Z,100019.09
2022-09-10T15:26:20.930Z,100013.28
2022-09-10T15:28:48.902Z,100030.28
2022-09-10T15:31:18.393Z,100036.28
2022-09-10T15:33:46.402Z,100037.88
2022-09-10T15:36:14.331Z,100033.69
2022-09-10T15:38:42.727Z,100033.56
2022-09-10T15:41:13.003Z,100029.31
2022-09-10T15:43:44.313Z,100027.41
2022-09-10T15:46:13.566Z,100031.78
2022-09-10T15:48:41.894Z,100028.66
2022-09-10T15:51:14.930Z,100034.25
2022-09-10T15:53:43.715Z,100028.13
2022-09-10T15:56:12.934Z,100032.66
2022-09-10T15:58:43.421Z,100027.22
2022-09-10T16:01:13.055Z,100021.25
2022-09-10T16:03:46.451Z,99997.94
2022-09-10T16:06:14.474Z,100022.31
2022-09-10T16:08:42.995Z,100026.81
2022-09-10T16:11:12.901Z,100013.28
2022-09-10T16:13:43.728Z,100015.78
2022-09-10T16:16:15.669Z,100002.94
2022-09-10T16:18:43.906Z,100011.31
2022-09-10T16:21:15.674Z,100020.72
2022-09-10T16:23:44.470Z,100042.03
2022-09-10T16:26:16.055Z,100064.09
2022-09-10T16:28:49.940Z,100062.28
2022-09-10T16:31:19.598Z,100063.72
2022-09-10T16:33:51.691Z,100067.25
2022-09-10T16:36:22.421Z,100065.41
2022-09-10T16:38:54.256Z,100060.34
2022-09-10T16:41:23.441Z,100081.38
2022-09-10T16:43:53.694Z,100083.91
2022-09-10T16:46:21.628Z,100095.81
2022-09-10T16:48:53.178Z,100092.31
2022-09-10T16:51:23.613Z,100097.44
2022-09-10T16:53:56.944Z,100083.94
2022-09-10T16:56:26.657Z,100103.16
2022-09-10T16:58:55.947Z,100106.25
2022-09-10T17:01:23.928Z,100116.28
2022-09-10T17:03:52.421Z,100129.38
2022-09-10T17:06:22.146Z,100140.03
2022-09-10T17:08:50.235Z,100141.66
2022-09-10T17:11:19.967Z,100161.69
2022-09-10T17:13:48.323Z,100162.31
2022-09-10T17:16:24.906Z,100168.47
2022-09-10T17:18:57.485Z,100172.28
2022-09-10T17:21:26.529Z,100162.88
2022-09-10T17:23:55.419Z,100173.16
2022-09-10T17:26:24.267Z,100186.19
2022-09-10T17:28:56.510Z,100194.41
2022-09-10T17:31:27.523Z,100205.53
2022-09-10T17:33:56.718Z,100202.06
2022-09-10T17:36:26.390Z,100231.25
2022-09-10T17:38:54.775Z,100242.06
2022-09-10T17:41:24.359Z,100250.03
2022-09-10T17:43:52.522Z,100231.69
2022-09-10T17:46:23.485Z,100224.47
2022-09-10T17:48:54.220Z,100220.78
2022-09-10T17:51:24.270Z,100235.53
2022-09-10T17:53:53.056Z,100230.34
2022-09-10T17:56:21.855Z,100230.78
2022-09-10T17:58:50.952Z,100213.78
2022-09-10T18:01:23.684Z,100233.09
2022-09-10T18:03:53.626Z,100233.53
2022-09-10T18:06:22.496Z,100231.84
2022-09-10T18:08:50.507Z,100233.97
2022-09-10T18:11:21.255Z,100226.34
2022-09-10T18:13:51.629Z,100226.72
2022-09-10T18:16:22.464Z,100220.19
2022-09-10T18:18:55.582Z,100227.66
2022-09-10T18:21:26.019Z,100246.44
2022-09-10T18:23:55.777Z,100240.13
2022-09-10T18:26:25.482Z,100246.06
2022-09-10T18:28:55.889Z,100242.75
2022-09-10T18:31:25.252Z,100235.28
2022-09-10T18:33:55.815Z,100215.09
2022-09-10T18:36:25.594Z,100228.25
2022-09-10T18:38:53.990Z,100233.91
2022-09-10T18:41:24.271Z,100254.97
2022-09-10T18:43:53.902Z,100246.72
2022-09-10T18:46:23.606Z,100243.31
2022-09-10T18:48:52.354Z,100250.13
2022-09-10T18:51:24.821Z,100250.00
2022-09-10T18:53:54.293Z,100252.63
2022-09-10T18:56:25.430Z,100252.28
2022-09-10T18:58:55.869Z,100260.69
2022-09-10T19:01:25.306Z,100245.78
2022-09-10T19:03:53.447Z,100236.00
2022-09-10T19:06:25.634Z,100239.31
2022-09-10T19:08:55.561Z,100241.78
2022-09-10T19:11:24.557Z,100241.13
2022-09-10T19:13:54.123Z,100240.50
2022-09-10T19:16:24.378Z,100234.28
2022-09-10T19:18:53.698Z,100240.94
2022-09-10T19:21:24.577Z,100233.09
2022-09-10T19:23:59.458Z,100234.19
2022-09-10T19:26:29.962Z,100234.09
2022-09-10T19:28:58.916Z,100208.81
2022-09-10T19:31:28.488Z,100230.56
2022-09-10T19:33:57.726Z,100227.41
2022-09-10T19:36:28.562Z,100221.56
2022-09-10T19:38:56.503Z,100234.44
2022-09-10T19:41:25.628Z,100246.22
2022-09-10T19:43:55.245Z,100244.03
2022-09-10T19:46:25.236Z,100248.53
2022-09-10T19:48:53.347Z,100243.97
2022-09-10T19:51:21.827Z,100260.00
2022-09-10T19:53:51.527Z,100248.56
2022-09-10T19:56:21.853Z,100237.50
2022-09-10T19:58:51.786Z,100238.50
2022-09-10T20:01:21.944Z,100236.41
2022-09-10T20:03:50.814Z,100241.53
2022-09-10T20:06:21.459Z,100239.16
2022-09-10T20:08:50.871Z,100231.38
2022-09-10T20:11:21.220Z,100234.63
2022-09-10T20:13:50.039Z,100228.72
2022-09-10T20:16:18.366Z,100231.72
2022-09-10T20:18:46.734Z,100236.72
2022-09-10T20:21:16.602Z,100235.28
2022-09-10T20:23:46.497Z,100242.22
2022-09-10T20:26:17.503Z,100236.53
2022-09-10T20:28:45.675Z,100234.06
2022-09-10T20:31:14.354Z,100244.06
2022-09-10T20:33:43.637Z,100242.91
2022-09-10T20:36:15.206Z,100216.94
2022-09-10T20:38:43.599Z,100240.91
2022-09-10T20:41:13.153Z,100237.78
2022-09-10T20:43:42.896Z,100221.06
2022-09-10T20:46:16.055Z,100245.44
2022-09-10T20:48:49.047Z,100240.50
2022-09-10T20:51:18.287Z,100236.56
2022-09-10T20:53:46.926Z,100245.97
2022-09-10T20:56:17.693Z,100240.22
2022-09-10T20:58:48.063Z,100252.50
2022-09-10T21:01:18.995Z,100255.69
2022-09-10T21:03:47.710Z,100252.22
2022-09-10T21:06:19.410Z,100248.25
2022-09-10T21:08:50.105Z,100254.22
2022-09-10T21:11:19.971Z,100253.63
2022-09-10T21:13:51.069Z,100253.44
2022-09-10T21:16:20.702Z,100250.63
2022-09-10T21:18:53.739Z,100244.50
2022-09-10T21:21:25.742Z,100250.34
2022-09-10T21:23:55.482Z,100245.34
2022-09-10T21:26:26.285Z,100243.34
2022-09-10T21:28:57.461Z,100242.69
2022-09-10T21:31:26.114Z,100245.88
2022-09-10T21:33:59.408Z,100237.97
2022-09-10T21:36:30.767Z,100242.66
2022-09-10T21:39:00.180Z,100217.31
2022-09-10T21:41:31.276Z,100241.03
2022-09-10T21:44:01.309Z,100246.19
2022-09-10T21:46:29.816Z,100238.94
2022-09-10T21:48:58.286Z,100241.94
2022-09-10T21:51:26.519Z,100238.44
2022-09-10T21:53:56.383Z,100236.81
2022-09-10T21:56:26.048Z,100239.97
2022-09-10T21:58:54.511Z,100236.34
2022-09-10T22:01:25.822Z,100246.56
2022-09-10T22:03:54.878Z,100223.50
2022-09-10T22:06:24.133Z,100233.38
2022-09-10T22:08:53.846Z,100246.91
2022-09-10T22:11:24.369Z,100255.03
2022-09-10T22:13:53.911Z,100215.63
2022-09-10T22:16:23.690Z,100260.50
2022-09-10T22:18:52.543Z,100245.81
2022-09-10T22:21:20.906Z,100266.13
2022-09-10T22:23:51.846Z,100263.47
2022-09-10T22:26:21.966Z,100269.91
2022-09-10T22:28:52.766Z,100262.81
2022-09-10T22:31:22.282Z,100264.47
2022-09-10T22:33:55.897Z,100270.78
2022-09-10T22:36:24.769Z,100273.47
2022-09-10T22:38:54.347Z,100273.75
2022-09-10T22:41:23.263Z,100272.78
2022-09-10T22:43:51.606Z,100258.41
2022-09-10T22:46:20.436Z,100271.28
2022-09-10T22:48:48.846Z,100255.44
2022-09-10T22:51:20.212Z,100263.19
2022-09-10T22:53:48.399Z,100252.66
2022-09-10T22:56:17.740Z,100250.50
2022-09-10T22:58:46.343Z,100250.34
2022-09-10T23:01:17.082Z,100258.91
2022-09-10T23:03:45.940Z,100268.00
2022-09-10T23:06:15.817Z,100259.38
2022-09-10T23:08:46.738Z,100237.63
2022-09-10T23:11:17.323Z,100253.97
2022-09-10T23:13:46.728Z,100251.00
2022-09-10T23:16:17.176Z,100239.47
2022-09-10T23:18:50.628Z,100207.16
2022-09-10T23:21:19.491Z,100245.25
2022-09-10T23:23:50.334Z,100240.94
2022-09-10T23:26:18.810Z,100223.31
2022-09-10T23:28:47.319Z,100231.91
2022-09-10T23:31:17.440Z,100245.25
2022-09-10T23:33:47.128Z,100219.03
2022-09-10T23:36:15.634Z,100228.94
2022-09-10T23:38:43.904Z,100227.94
2022-09-10T23:41:13.536Z,100222.00
2022-09-10T23:43:41.685Z,100224.31
2022-09-10T23:46:10.742Z,100212.91
2022-09-10T23:48:39.411Z,100222.50
2022-09-10T23:51:08.177Z,100224.47
2022-09-10T23:53:36.098Z,100214.09
2022-09-10T23:56:04.928Z,100213.41
2022-09-10T23:58:34.501Z,100206.63
